createdAt,value
2022-10-15T00:04:46.445Z,75.76
2022-10-15T00:09:52.700Z,76.34
2022-10-15T00:15:00.285Z,76.89
2022-10-15T00:20:09.895Z,77.10
2022-10-15T00:25:16.151Z,77.76
2022-10-15T00:30:23.525Z,76.77
2022-10-15T00:35:33.961Z,77.07
2022-10-15T00:40:43.683Z,76.00
2022-10-15T00:45:52.552Z,77.69
2022-10-15T00:51:02.740Z,77.24
2022-10-15T00:56:11.157Z,77.47
2022-10-15T01:01:18.884Z,77.52
2022-10-15T01:06:25.775Z,78.10
2022-10-15T01:11:43.000Z,78.57
2022-10-15T01:17:01.478Z,79.88
2022-10-15T01:22:12.511Z,80.67
2022-10-15T01:27:37.260Z,79.98
2022-10-15T01:32:58.800Z,81.25
2022-10-15T01:38:22.430Z,82.12
2022-10-15T01:43:37.379Z,82.75
2022-10-15T01:49:06.719Z,82.54
2022-10-15T01:54:19.592Z,82.82
2022-10-15T01:59:31.522Z,83.26
2022-10-15T02:04:40.141Z,82.60
2022-10-15T02:09:51.949Z,82.39
2022-10-15T02:15:04.850Z,82.29
2022-10-15T02:20:19.885Z,81.64
2022-10-15T02:25:29.846Z,81.71
2022-10-15T02:30:42.231Z,81.61
2022-10-15T02:35:53.973Z,80.47
2022-10-15T02:41:00.536Z,82.01
2022-10-15T02:46:09.185Z,81.17
2022-10-15T02:51:17.776Z,80.97
2022-10-15T02:56:24.173Z,80.20
2022-10-15T03:01:31.010Z,81.54
2022-10-15T03:06:39.777Z,81.56
2022-10-15T03:11:46.049Z,82.33
2022-10-15T03:16:52.312Z,83.10
2022-10-15T03:22:00.575Z,84.28
2022-10-15T03:27:15.426Z,84.16
2022-10-15T03:32:21.979Z,84.34
2022-10-15T03:37:29.715Z,84.61
2022-10-15T03:42:36.520Z,84.90
2022-10-15T03:47:43.894Z,84.94
2022-10-15T03:52:51.610Z,85.67
2022-10-15T03:57:59.002Z,85.32
2022-10-15T04:03:06.109Z,86.90
2022-10-15T04:08:14.243Z,86.80
2022-10-15T04:13:20.499Z,85.41
2022-10-15T04:18:26.783Z,84.86
2022-10-15T04:23:36.990Z,86.10
2022-10-15T04:29:01.553Z,86.86
2022-10-15T04:34:09.155Z,86.72
2022-10-15T04:39:17.880Z,87.62
2022-10-15T04:44:27.778Z,87.09
2022-10-15T04:49:36.649Z,86.75
2022-10-15T04:54:51.112Z,87.57
2022-10-15T04:59:58.027Z,88.02
2022-10-15T05:05:13.480Z,86.73
2022-10-15T05:10:31.102Z,86.80
2022-10-15T05:15:43.562Z,86.99
2022-10-15T05:20:50.407Z,87.70
2022-10-15T05:26:03.846Z,88.38
2022-10-15T05:31:18.623Z,87.64
2022-10-15T05:36:27.625Z,88.00
2022-10-15T05:41:36.159Z,89.13
2022-10-15T05:46:44.686Z,89.36
2022-10-15T05:51:56.781Z,89.79
2022-10-15T05:57:23.146Z,90.05
2022-10-15T06:02:29.663Z,90.40
2022-10-15T06:07:36.235Z,90.42
2022-10-15T06:12:50.294Z,89.33
2022-10-15T06:17:56.461Z,89.32
2022-10-15T06:23:03.763Z,89.19
2022-10-15T06:28:11.916Z,89.27
2022-10-15T06:33:22.129Z,87.63
2022-10-15T06:38:28.498Z,87.61
2022-10-15T06:43:37.033Z,88.10
2022-10-15T06:48:43.620Z,88.61
2022-10-15T06:53:51.047Z,89.03
2022-10-15T06:58:58.764Z,90.30
2022-10-15T07:04:05.073Z,90.47
2022-10-15T07:09:11.505Z,91.14
2022-10-15T07:14:19.206Z,91.41
2022-10-15T07:19:25.380Z,91.76
2022-10-15T07:24:32.010Z,91.99
2022-10-15T07:29:39.989Z,92.60
2022-10-15T07:34:46.596Z,92.67
2022-10-15T07:39:56.196Z,92.65
2022-10-15T07:45:08.172Z,92.81
2022-10-15T07:50:14.431Z,93.19
2022-10-15T07:55:20.725Z,92.93
2022-10-15T08:00:28.617Z,93.01
2022-10-15T08:05:36.793Z,92.97
2022-10-15T08:10:43.295Z,92.90
2022-10-15T08:15:52.457Z,92.65
2022-10-15T08:21:02.214Z,92.46
2022-10-15T08:26:08.725Z,92.13
2022-10-15T08:31:16.327Z,91.56
2022-10-15T08:36:22.813Z,91.30
2022-10-15T08:41:39.276Z,90.88
2022-10-15T08:46:50.883Z,91.04
2022-10-15T08:52:10.143Z,90.74
2022-10-15T08:57:38.219Z,90.52
2022-10-15T09:02:59.099Z,90.40
2022-10-15T09:08:19.695Z,89.91
2022-10-15T09:13:32.445Z,89.10
2022-10-15T09:18:43.464Z,88.69
2022-10-15T09:23:50.627Z,88.45
2022-10-15T09:29:08.371Z,88.26
2022-10-15T09:34:27.517Z,87.44
2022-10-15T09:39:47.456Z,86.97
2022-10-15T09:44:56.249Z,85.94
2022-10-15T09:50:05.018Z,86.17
2022-10-15T09:55:26.667Z,85.53
2022-10-15T10:01:00.235Z,83.50
2022-10-15T10:06:15.209Z,84.05
2022-10-15T10:11:28.798Z,84.15
2022-10-15T10:16:35.129Z,82.40
2022-10-15T10:21:46.309Z,82.54
2022-10-15T10:26:52.491Z,81.85
2022-10-15T10:31:58.923Z,81.70
2022-10-15T10:37:12.338Z,81.67
2022-10-15T10:43:11.900Z,80.82
2022-10-15T10:48:23.009Z,80.30
2022-10-15T10:53:30.734Z,79.50
2022-10-15T10:58:38.583Z,78.76
2022-10-15T11:03:48.883Z,78.62
2022-10-15T11:09:17.445Z,78.00
2022-10-15T11:14:33.964Z,77.46
2022-10-15T11:25:33.198Z,76.52
2022-10-15T11:30:53.456Z,76.11
2022-10-15T11:36:17.082Z,76.02
2022-10-15T11:41:43.659Z,76.37
2022-10-15T11:47:01.377Z,76.46
2022-10-15T11:52:27.758Z,75.15
2022-10-15T11:58:32.350Z,75.23
2022-10-15T12:03:48.130Z,74.91
2022-10-15T12:08:55.375Z,74.77
2022-10-15T12:14:14.921Z,74.32
2022-10-15T12:19:27.810Z,74.21
2022-10-15T12:24:56.839Z,74.08
2022-10-15T12:30:28.736Z,73.72
2022-10-15T12:35:40.480Z,73.26
2022-10-15T12:40:47.298Z,73.37
2022-10-15T12:45:57.873Z,73.31
2022-10-15T12:51:41.918Z,73.22
2022-10-15T12:56:48.477Z,72.78
2022-10-15T13:01:56.339Z,72.61
2022-10-15T13:07:05.555Z,72.39
2022-10-15T13:12:25.761Z,72.74
2022-10-15T13:17:34.966Z,72.49
2022-10-15T13:22:41.689Z,72.10
2022-10-15T13:27:48.053Z,72.85
2022-10-15T13:32:58.399Z,72.66
2022-10-15T13:38:06.345Z,73.03
2022-10-15T13:43:19.756Z,72.95
2022-10-15T13:48:30.923Z,72.47
2022-10-15T13:53:39.213Z,72.40
2022-10-15T13:58:48.052Z,73.21
2022-10-15T14:03:57.674Z,73.10
2022-10-15T14:09:19.940Z,73.46
2022-10-15T14:14:36.107Z,74.12
2022-10-15T14:19:51.504Z,75.29
2022-10-15T14:30:29.633Z,78.54
2022-10-15T14:35:39.547Z,78.98
2022-10-15T14:41:04.858Z,79.57
2022-10-15T14:46:21.111Z,80.24
2022-10-15T14:51:30.267Z,79.88
2022-10-15T14:56:36.958Z,80.07
2022-10-15T15:01:52.645Z,79.88
2022-10-15T15:07:00.421Z,79.65
2022-10-15T15:12:07.135Z,80.18
2022-10-15T15:24:25.799Z,80.55
2022-10-15T15:37:44.835Z,82.57
2022-10-15T15:42:52.619Z,82.47
2022-10-15T15:48:02.414Z,83.91
2022-10-15T15:53:09.063Z,84.99
2022-10-15T15:58:17.297Z,84.94
2022-10-15T16:03:24.182Z,85.22
2022-10-15T16:08:31.344Z,85.21
2022-10-15T16:13:41.173Z,84.89
2022-10-15T16:18:47.680Z,83.80
2022-10-15T16:23:54.252Z,85.17
2022-10-15T16:29:02.331Z,86.12
2022-10-15T16:34:09.198Z,86.36
2022-10-15T16:39:16.546Z,87.13
2022-10-15T16:44:24.397Z,86.99
2022-10-15T16:49:31.134Z,86.45
2022-10-15T16:54:39.032Z,86.54
2022-10-15T16:59:46.882Z,85.97
2022-10-15T17:04:53.606Z,85.65
2022-10-15T17:10:00.701Z,85.21
2022-10-15T17:15:12.717Z,85.17
2022-10-15T17:20:20.707Z,85.14
2022-10-15T17:25:29.654Z,85.33
2022-10-15T17:30:44.627Z,85.01
2022-10-15T17:35:59.261Z,85.56
2022-10-15T17:41:15.986Z,85.15
2022-10-15T17:46:31.455Z,85.76
2022-10-15T17:51:41.610Z,85.22
2022-10-15T17:56:49.489Z,85.83
2022-10-15T18:02:01.320Z,85.78
2022-10-15T18:07:15.086Z,86.19
2022-10-15T18:12:27.747Z,86.50
2022-10-15T18:17:37.547Z,85.87
2022-10-15T18:22:47.104Z,86.14
2022-10-15T18:27:54.935Z,85.98
2022-10-15T18:33:03.590Z,86.39
2022-10-15T18:38:10.563Z,86.57
2022-10-15T18:43:19.584Z,86.45
2022-10-15T18:48:32.807Z,86.45
2022-10-15T18:53:41.824Z,86.40
2022-10-15T18:58:57.355Z,86.55
2022-10-15T19:04:15.787Z,87.01
2022-10-15T19:09:31.202Z,87.19
2022-10-15T19:14:42.446Z,87.28
2022-10-15T19:19:54.871Z,86.49
2022-10-15T19:25:51.103Z,86.72
2022-10-15T19:31:08.776Z,86.66
2022-10-15T19:36:49.407Z,85.89
2022-10-15T19:41:58.051Z,86.19
2022-10-15T19:47:05.763Z,86.29
2022-10-15T19:52:15.889Z,86.45
2022-10-15T19:57:24.224Z,86.64
2022-10-15T20:02:32.856Z,86.12
2022-10-15T20:07:43.182Z,86.44
2022-10-15T20:12:51.419Z,86.80
2022-10-15T20:17:59.011Z,86.54
2022-10-15T20:23:08.221Z,86.95
2022-10-15T20:28:20.038Z,86.55
2022-10-15T20:33:32.538Z,86.63
2022-10-15T20:38:44.194Z,86.67
2022-10-15T20:43:57.932Z,87.04
2022-10-15T20:54:21.029Z,86.77
2022-10-15T20:59:30.264Z,87.02
2022-10-15T21:04:37.750Z,86.98
2022-10-15T21:09:46.630Z,86.68
2022-10-15T21:14:53.279Z,86.74
2022-10-15T21:19:59.385Z,86.99
2022-10-15T21:25:08.351Z,86.72
2022-10-15T21:30:15.006Z,87.35
2022-10-15T21:35:21.526Z,87.24
2022-10-15T21:40:30.498Z,87.66
2022-10-15T21:45:37.813Z,87.37
2022-10-15T21:50:49.275Z,87.50
2022-10-15T21:55:57.839Z,87.31
2022-10-15T22:01:14.537Z,87.02
2022-10-15T22:06:23.964Z,87.14
2022-10-15T22:11:35.645Z,87.16
2022-10-15T22:16:43.347Z,87.33
2022-10-15T22:21:51.229Z,87.47
2022-10-15T22:27:01.049Z,87.77
2022-10-15T22:32:07.464Z,87.39
2022-10-15T22:37:13.669Z,87.72
2022-10-15T22:42:21.204Z,87.68
2022-10-15T22:47:28.080Z,87.32
2022-10-15T22:52:34.165Z,88.03
2022-10-15T22:57:41.638Z,88.38
2022-10-15T23:02:47.797Z,88.56
2022-10-15T23:07:53.791Z,88.34
2022-10-15T23:13:01.196Z,88.52
2022-10-15T23:18:07.120Z,88.75
2022-10-15T23:23:13.110Z,88.49
2022-10-15T23:28:26.995Z,88.69
2022-10-15T23:33:35.579Z,88.86
2022-10-15T23:38:41.648Z,88.65
2022-10-15T23:43:50.153Z,88.16
2022-10-15T23:48:58.081Z,88.12
2022-10-15T23:54:06.256Z,88.48
2022-10-15T23:59:14.193Z,88.44
